createdAt,value
2023-05-15T00:00:44.464Z,101701.10
2023-05-15T00:03:12.536Z,101699.71
2023-05-15T00:05:39.615Z,101696.77
2023-05-15T00:08:06.389Z,101695.81
2023-05-15T00:10:33.122Z,101698.50
2023-05-15T00:12:59.939Z,101696.80
2023-05-15T00:15:26.929Z,101698.05
2023-05-15T00:17:54.166Z,101695.86
2023-05-15T00:20:21.009Z,101693.67
2023-05-15T00:22:47.951Z,101686.99
2023-05-15T00:25:15.083Z,101681.29
2023-05-15T00:27:41.941Z,101676.69
2023-05-15T00:30:09.231Z,101676.05
2023-05-15T00:32:36.102Z,101671.63
2023-05-15T00:35:02.983Z,101665.52
2023-05-15T00:37:30.967Z,101665.94
2023-05-15T00:39:57.795Z,101663.36
2023-05-15T00:42:25.284Z,101661.98
2023-05-15T00:44:52.647Z,101660.39
2023-05-15T00:47:20.807Z,101656.25
2023-05-15T00:49:47.852Z,101655.79
2023-05-15T00:52:14.974Z,101658.84
2023-05-15T00:54:42.296Z,101664.30
2023-05-15T00:57:09.230Z,101664.66
2023-05-15T00:59:36.165Z,101664.83
2023-05-15T01:02:03.116Z,101666.80
2023-05-15T01:04:29.935Z,101670.02
2023-05-15T01:06:56.948Z,101671.52
2023-05-15T01:09:24.264Z,101672.70
2023-05-15T01:11:51.222Z,101674.43
2023-05-15T01:14:18.201Z,101673.02
2023-05-15T01:16:46.251Z,101673.37
2023-05-15T01:19:13.448Z,101674.21
2023-05-15T01:21:46.093Z,101676.44
2023-05-15T01:24:32.015Z,101680.05
2023-05-15T01:27:01.749Z,101680.02
2023-05-15T01:29:40.958Z,101679.45
2023-05-15T01:32:21.116Z,101680.44
2023-05-15T01:35:14.432Z,101686.08
2023-05-15T01:37:44.355Z,101683.02
2023-05-15T01:40:11.923Z,101680.23
2023-05-15T01:42:38.942Z,101676.99
2023-05-15T01:45:06.289Z,101673.70
2023-05-15T01:47:51.284Z,101677.90
2023-05-15T01:50:18.180Z,101675.79
2023-05-15T01:52:45.909Z,101675.85
2023-05-15T01:55:12.805Z,101675.77
2023-05-15T01:57:39.715Z,101674.89
2023-05-15T02:00:07.050Z,101675.42
2023-05-15T02:02:40.995Z,101671.44
2023-05-15T02:05:08.118Z,101671.27
2023-05-15T02:07:34.916Z,101673.09
2023-05-15T02:10:01.962Z,101672.48
2023-05-15T02:12:30.039Z,101668.42
2023-05-15T02:14:56.862Z,101670.52
2023-05-15T02:17:24.128Z,101672.05
2023-05-15T02:19:51.169Z,101670.61
2023-05-15T02:22:17.951Z,101674.61
2023-05-15T02:24:44.932Z,101674.48
2023-05-15T02:27:22.920Z,101676.27
2023-05-15T02:30:08.728Z,101675.03
2023-05-15T02:32:48.621Z,101676.38
2023-05-15T02:35:34.102Z,101674.70
2023-05-15T02:38:01.363Z,101673.64
2023-05-15T02:40:28.180Z,101677.07
2023-05-15T02:42:55.092Z,101682.55
2023-05-15T02:45:22.074Z,101685.33
2023-05-15T02:47:50.709Z,101689.84
2023-05-15T02:50:17.583Z,101691.92
2023-05-15T02:52:44.451Z,101688.83
2023-05-15T02:55:11.251Z,101688.23
2023-05-15T02:57:38.070Z,101689.24
2023-05-15T03:00:07.683Z,101691.29
2023-05-15T03:02:34.653Z,101693.64
2023-05-15T03:05:01.500Z,101697.34
2023-05-15T03:07:28.387Z,101698.11
2023-05-15T03:09:55.246Z,101701.06
2023-05-15T03:12:22.015Z,101703.96
2023-05-15T03:14:49.048Z,101702.46
2023-05-15T03:17:16.169Z,101705.27
2023-05-15T03:19:43.645Z,101704.47
2023-05-15T03:22:10.544Z,101702.93
2023-05-15T03:24:37.369Z,101702.55
2023-05-15T03:27:04.945Z,101703.80
2023-05-15T03:29:32.182Z,101702.77
2023-05-15T03:31:59.016Z,101703.64
2023-05-15T03:34:28.990Z,101703.02
2023-05-15T03:36:56.293Z,101701.02
2023-05-15T03:39:23.074Z,101697.52
2023-05-15T03:41:49.835Z,101695.14
2023-05-15T03:44:16.664Z,101692.30
2023-05-15T03:46:43.635Z,101692.23
2023-05-15T03:49:11.127Z,101694.73
2023-05-15T03:51:38.021Z,101691.94
2023-05-15T03:54:05.904Z,101690.71
2023-05-15T03:56:32.938Z,101689.60
2023-05-15T03:58:59.773Z,101691.18
2023-05-15T04:01:26.777Z,101695.02
2023-05-15T04:03:53.727Z,101693.98
2023-05-15T04:06:20.818Z,101692.14
2023-05-15T04:08:47.627Z,101689.09
2023-05-15T04:11:14.429Z,101687.31
2023-05-15T04:13:41.228Z,101688.61
2023-05-15T04:16:08.665Z,101686.12
2023-05-15T04:18:35.540Z,101685.18
2023-05-15T04:21:02.432Z,101683.21
2023-05-15T04:23:29.219Z,101678.98
2023-05-15T04:25:57.349Z,101672.92
2023-05-15T04:28:24.199Z,101667.62
2023-05-15T04:30:51.135Z,101671.48
2023-05-15T04:33:17.975Z,101669.48
2023-05-15T04:35:44.818Z,101667.55
2023-05-15T04:38:11.939Z,101665.91
2023-05-15T04:40:38.710Z,101663.98
2023-05-15T04:43:06.047Z,101664.80
2023-05-15T04:45:32.814Z,101660.11
2023-05-15T04:47:59.722Z,101659.86
2023-05-15T04:50:26.718Z,101658.54
2023-05-15T04:52:54.248Z,101659.11
2023-05-15T04:55:21.072Z,101656.11
2023-05-15T04:57:48.053Z,101657.19
2023-05-15T05:00:15.321Z,101656.52
2023-05-15T05:02:43.764Z,101660.11
2023-05-15T05:05:10.630Z,101659.27
2023-05-15T05:07:37.456Z,101659.81
2023-05-15T05:10:05.612Z,101659.80
2023-05-15T05:12:32.612Z,101662.79
2023-05-15T05:14:59.570Z,101661.23
2023-05-15T05:17:26.751Z,101669.97
2023-05-15T05:19:54.695Z,101673.17
2023-05-15T05:22:21.516Z,101670.69
2023-05-15T05:24:48.377Z,101672.11
2023-05-15T05:27:15.395Z,101672.75
2023-05-15T05:29:42.634Z,101674.13
2023-05-15T05:32:09.483Z,101674.16
2023-05-15T05:34:36.319Z,101675.58
2023-05-15T05:37:03.240Z,101676.86
2023-05-15T05:39:30.548Z,101675.66
2023-05-15T05:41:57.613Z,101679.62
2023-05-15T05:44:24.690Z,101674.48
2023-05-15T05:46:52.648Z,101674.70
2023-05-15T05:49:22.637Z,101675.23
2023-05-15T05:51:49.521Z,101675.73
2023-05-15T05:54:18.320Z,101672.98
2023-05-15T05:56:45.449Z,101669.66
2023-05-15T05:59:12.287Z,101670.21
2023-05-15T06:01:39.114Z,101666.20
2023-05-15T06:04:06.149Z,101668.28
2023-05-15T06:06:33.454Z,101667.97
2023-05-15T06:09:00.266Z,101672.39
2023-05-15T06:11:27.238Z,101669.66
2023-05-15T06:13:54.155Z,101664.69
2023-05-15T06:16:21.726Z,101667.36
2023-05-15T06:18:48.669Z,101666.02
2023-05-15T06:21:15.518Z,101667.52
2023-05-15T06:23:42.473Z,101667.84
2023-05-15T06:26:09.581Z,101664.99
2023-05-15T06:28:36.530Z,101664.20
2023-05-15T06:31:03.774Z,101670.80
2023-05-15T06:33:31.409Z,101672.73
2023-05-15T06:36:01.809Z,101670.73
2023-05-15T06:38:29.823Z,101666.69
2023-05-15T06:40:56.777Z,101666.46
2023-05-15T06:43:23.757Z,101666.81
2023-05-15T06:45:55.747Z,101668.52
2023-05-15T06:48:22.737Z,101668.99
2023-05-15T06:50:52.731Z,101667.39
2023-05-15T06:53:21.323Z,101666.78
2023-05-15T06:55:48.256Z,101669.41
2023-05-15T06:58:18.316Z,101671.03
2023-05-15T07:00:45.590Z,101671.38
2023-05-15T07:03:14.599Z,101669.04
2023-05-15T07:05:41.482Z,101667.55
2023-05-15T07:08:08.381Z,101668.09
2023-05-15T07:10:35.298Z,101669.31
2023-05-15T07:13:02.352Z,101673.76
2023-05-15T07:15:32.164Z,101675.13
2023-05-15T07:18:02.568Z,101674.66
2023-05-15T07:20:31.694Z,101676.98
2023-05-15T07:22:59.533Z,101676.27
2023-05-15T07:25:26.680Z,101673.02
2023-05-15T07:27:53.771Z,101673.98
2023-05-15T07:30:23.752Z,101672.83
2023-05-15T07:32:51.399Z,101666.86
2023-05-15T07:35:18.570Z,101664.46
2023-05-15T07:37:46.749Z,101666.21
2023-05-15T07:40:14.007Z,101666.99
2023-05-15T07:42:41.019Z,101668.45
2023-05-15T07:45:08.599Z,101673.33
2023-05-15T07:47:36.344Z,101676.02
2023-05-15T07:50:03.570Z,101673.86
2023-05-15T07:52:33.233Z,101674.44
2023-05-15T07:55:01.494Z,101677.56
2023-05-15T07:57:29.015Z,101681.90
2023-05-15T07:59:56.472Z,101682.73
2023-05-15T08:02:23.400Z,101678.99
2023-05-15T08:04:53.309Z,101678.62
2023-05-15T08:07:21.071Z,101678.02
2023-05-15T08:09:48.070Z,101677.72
2023-05-15T08:12:17.685Z,101675.11
2023-05-15T08:14:44.656Z,101671.81
2023-05-15T08:17:11.632Z,101664.49
2023-05-15T08:19:38.537Z,101660.73
2023-05-15T08:22:05.417Z,101662.23
2023-05-15T08:24:32.307Z,101658.89
2023-05-15T08:26:59.080Z,101657.54
2023-05-15T08:29:26.077Z,101657.56
2023-05-15T08:32:02.520Z,101657.58
2023-05-15T08:34:30.591Z,101656.79
2023-05-15T08:36:58.489Z,101656.52
2023-05-15T08:39:26.080Z,101654.38
2023-05-15T08:41:55.881Z,101656.23
2023-05-15T08:44:22.980Z,101656.52
2023-05-15T08:46:50.000Z,101655.48
2023-05-15T08:49:20.834Z,101657.04
2023-05-15T08:51:48.499Z,101655.44
2023-05-15T08:54:15.774Z,101657.19
2023-05-15T08:56:45.525Z,101657.47
2023-05-15T08:59:12.423Z,101655.07
2023-05-15T09:01:42.071Z,101651.84
2023-05-15T09:04:09.545Z,101651.60
2023-05-15T09:06:36.524Z,101655.98
2023-05-15T09:09:05.592Z,101656.13
2023-05-15T09:11:34.166Z,101653.52
2023-05-15T09:14:01.279Z,101657.38
2023-05-15T09:16:28.324Z,101659.34
2023-05-15T09:18:56.459Z,101653.98
2023-05-15T09:21:25.519Z,101650.63
2023-05-15T09:23:55.740Z,101647.73
2023-05-15T09:26:22.702Z,101646.24
2023-05-15T09:28:53.170Z,101647.46
2023-05-15T09:31:22.033Z,101651.64
2023-05-15T09:33:59.524Z,101649.83
2023-05-15T09:36:26.598Z,101645.55
2023-05-15T09:38:58.409Z,101643.11
2023-05-15T09:41:26.201Z,101646.16
2023-05-15T09:43:53.646Z,101639.41
2023-05-15T09:46:26.551Z,101632.24
2023-05-15T09:48:56.729Z,101629.29
2023-05-15T09:51:23.846Z,101632.42
2023-05-15T09:53:57.518Z,101630.30
2023-05-15T09:56:30.550Z,101628.33
2023-05-15T09:58:59.161Z,101625.70
2023-05-15T10:01:27.832Z,101630.17
2023-05-15T10:04:01.428Z,101632.51
2023-05-15T10:06:35.186Z,101629.86
2023-05-15T10:09:02.306Z,101628.08
2023-05-15T10:11:30.258Z,101631.90
2023-05-15T10:13:57.622Z,101637.11
2023-05-15T10:16:24.610Z,101639.14
2023-05-15T10:18:51.895Z,101635.66
2023-05-15T10:21:20.228Z,101642.82
2023-05-15T10:23:47.282Z,101642.33
2023-05-15T10:26:38.332Z,101641.96
2023-05-15T10:29:05.756Z,101639.77
2023-05-15T10:31:33.417Z,101643.98
2023-05-15T10:34:00.433Z,101642.70
2023-05-15T10:36:27.431Z,101645.77
2023-05-15T10:38:55.881Z,101644.94
2023-05-15T10:41:23.382Z,101645.08
2023-05-15T10:43:50.355Z,101640.53
2023-05-15T10:46:19.225Z,101633.26
2023-05-15T10:48:46.040Z,101631.10
2023-05-15T10:51:19.514Z,101626.23
2023-05-15T10:53:47.567Z,101626.70
2023-05-15T10:56:17.876Z,101627.75
2023-05-15T10:58:48.622Z,101618.36
2023-05-15T11:01:28.608Z,101617.23
2023-05-15T11:04:11.458Z,101612.46
2023-05-15T11:06:43.040Z,101615.05
2023-05-15T11:09:21.528Z,101612.39
2023-05-15T11:11:54.333Z,101624.25
2023-05-15T11:14:22.237Z,101626.91
2023-05-15T11:16:52.820Z,101628.52
2023-05-15T11:19:29.038Z,101628.17
2023-05-15T11:21:59.369Z,101624.27
2023-05-15T11:24:32.577Z,101626.38
2023-05-15T11:27:00.226Z,101612.33
2023-05-15T11:29:27.443Z,101605.08
2023-05-15T11:31:54.535Z,101606.09
2023-05-15T11:34:34.439Z,101601.91
2023-05-15T11:37:01.652Z,101611.15
2023-05-15T11:39:29.096Z,101608.73
2023-05-15T11:41:55.959Z,101616.02
2023-05-15T11:44:23.068Z,101624.31
2023-05-15T11:46:51.515Z,101627.89
2023-05-15T11:49:19.284Z,101627.61
2023-05-15T11:51:47.873Z,101632.17
2023-05-15T11:54:15.085Z,101642.58
2023-05-15T11:56:44.986Z,101640.83
2023-05-15T11:59:15.301Z,101638.96
2023-05-15T12:01:42.608Z,101634.80
2023-05-15T12:04:15.005Z,101625.11
2023-05-15T12:06:42.258Z,101615.77
2023-05-15T12:09:13.280Z,101613.55
2023-05-15T12:11:40.272Z,101615.33
2023-05-15T12:14:11.097Z,101616.16
2023-05-15T12:16:38.124Z,101624.38
2023-05-15T12:19:07.806Z,101625.81
2023-05-15T12:21:46.503Z,101623.61
2023-05-15T12:24:13.582Z,101622.75
2023-05-15T12:26:40.537Z,101622.80
2023-05-15T12:29:07.641Z,101621.11
2023-05-15T12:31:35.360Z,101616.14
2023-05-15T12:34:02.509Z,101615.73
2023-05-15T12:36:30.350Z,101619.23
2023-05-15T12:39:02.132Z,101620.14
2023-05-15T12:41:32.545Z,101614.73
2023-05-15T12:43:59.758Z,101613.52
2023-05-15T12:46:29.575Z,101616.40
2023-05-15T12:48:59.937Z,101615.61
2023-05-15T12:51:27.301Z,101617.04
2023-05-15T12:53:54.373Z,101613.69
2023-05-15T12:56:24.057Z,101617.04
2023-05-15T12:58:51.278Z,101617.54
2023-05-15T13:01:18.713Z,101611.90
2023-05-15T13:03:46.307Z,101608.62
2023-05-15T13:06:13.880Z,101608.89
2023-05-15T13:08:42.039Z,101607.42
2023-05-15T13:11:13.720Z,101607.01
2023-05-15T13:13:44.726Z,101606.29
2023-05-15T13:16:22.723Z,101602.54
2023-05-15T13:18:52.045Z,101599.31
2023-05-15T13:21:25.584Z,101596.45
2023-05-15T13:23:54.515Z,101597.41
2023-05-15T13:26:22.823Z,101597.31
2023-05-15T13:28:52.501Z,101596.34
2023-05-15T13:31:20.449Z,101593.55
2023-05-15T13:33:47.869Z,101593.31
2023-05-15T13:36:14.821Z,101589.65
2023-05-15T13:38:41.584Z,101587.14
2023-05-15T13:41:09.338Z,101586.61
2023-05-15T13:43:39.246Z,101586.20
2023-05-15T13:46:09.572Z,101579.13
2023-05-15T13:48:39.245Z,101578.30
2023-05-15T13:51:10.223Z,101578.75
2023-05-15T13:53:37.168Z,101578.27
2023-05-15T13:56:04.454Z,101575.56
2023-05-15T13:58:34.404Z,101579.52
2023-05-15T14:01:03.640Z,101579.33
2023-05-15T14:03:31.018Z,101575.84
2023-05-15T14:06:01.649Z,101576.85
2023-05-15T14:08:28.657Z,101574.95
2023-05-15T14:11:01.323Z,101573.91
2023-05-15T14:13:31.949Z,101571.44
2023-05-15T14:15:58.830Z,101565.40
2023-05-15T14:18:26.468Z,101565.71
2023-05-15T14:20:53.367Z,101562.61
2023-05-15T14:23:20.435Z,101560.42
2023-05-15T14:25:47.341Z,101560.67
2023-05-15T14:28:14.394Z,101559.80
2023-05-15T14:30:41.834Z,101560.48
2023-05-15T14:33:08.901Z,101558.14
2023-05-15T14:35:37.302Z,101557.30
2023-05-15T14:38:07.130Z,101557.80
2023-05-15T14:40:34.685Z,101564.39
2023-05-15T14:43:01.762Z,101564.60
2023-05-15T14:45:28.709Z,101568.30
2023-05-15T14:47:55.788Z,101569.08
2023-05-15T14:50:26.162Z,101569.56
2023-05-15T14:52:53.701Z,101566.35
2023-05-15T14:55:24.874Z,101564.04
2023-05-15T14:57:54.203Z,101560.63
2023-05-15T15:00:21.326Z,101561.57
2023-05-15T15:05:32.305Z,101563.17
2023-05-15T15:08:00.865Z,101559.35
2023-05-15T15:10:27.778Z,101560.54
2023-05-15T15:12:54.703Z,101556.92
2023-05-15T15:15:21.566Z,101559.77
2023-05-15T15:17:48.343Z,101560.15
2023-05-15T15:20:16.195Z,101556.05
2023-05-15T15:22:43.050Z,101550.59
2023-05-15T15:25:10.161Z,101549.55
2023-05-15T15:27:37.208Z,101550.13
2023-05-15T15:30:04.964Z,101548.51
2023-05-15T15:32:32.016Z,101550.60
2023-05-15T15:34:58.920Z,101554.11
2023-05-15T15:37:27.277Z,101550.04
2023-05-15T15:39:54.255Z,101547.20
2023-05-15T15:42:21.106Z,101535.66
2023-05-15T15:44:48.005Z,101534.20
2023-05-15T15:47:23.510Z,101533.52
2023-05-15T15:49:54.208Z,101529.68
2023-05-15T15:52:21.378Z,101535.92
2023-05-15T15:54:48.577Z,101538.23
2023-05-15T15:57:16.354Z,101543.36
2023-05-15T15:59:43.126Z,101544.97
2023-05-15T16:02:10.095Z,101543.84
2023-05-15T16:04:37.460Z,101540.05
2023-05-15T16:07:04.649Z,101535.91
2023-05-15T16:09:31.997Z,101535.94
2023-05-15T16:11:59.134Z,101530.00
2023-05-15T16:14:28.211Z,101528.29
2023-05-15T16:16:55.236Z,101527.14
2023-05-15T16:19:22.109Z,101529.25
2023-05-15T16:21:49.282Z,101529.04
2023-05-15T16:24:16.204Z,101531.48
2023-05-15T16:26:43.016Z,101531.15
2023-05-15T16:29:10.001Z,101533.34
2023-05-15T16:31:38.413Z,101539.73
2023-05-15T16:34:05.839Z,101544.96
2023-05-15T16:36:32.908Z,101548.55
2023-05-15T16:39:00.182Z,101549.67
2023-05-15T16:41:27.251Z,101547.86
2023-05-15T16:43:54.104Z,101545.50
2023-05-15T16:46:21.061Z,101544.85
2023-05-15T16:48:47.975Z,101542.92
2023-05-15T16:51:15.103Z,101550.77
2023-05-15T16:53:41.914Z,101546.62
2023-05-15T16:56:08.861Z,101545.51
2023-05-15T16:58:35.835Z,101549.77
2023-05-15T17:01:02.855Z,101552.20
2023-05-15T17:03:30.572Z,101552.00
2023-05-15T17:05:57.586Z,101547.09
2023-05-15T17:08:24.436Z,101548.29
2023-05-15T17:10:51.319Z,101544.76
2023-05-15T17:13:18.204Z,101545.66
2023-05-15T17:15:47.363Z,101546.63
2023-05-15T17:18:14.316Z,101546.05
2023-05-15T17:20:41.465Z,101550.66
2023-05-15T17:23:08.288Z,101550.27
2023-05-15T17:25:35.456Z,101556.52
2023-05-15T17:28:02.250Z,101552.20
2023-05-15T17:30:29.134Z,101550.52
2023-05-15T17:32:56.078Z,101551.63
2023-05-15T17:35:22.909Z,101555.48
2023-05-15T17:37:49.861Z,101549.51
2023-05-15T17:40:16.833Z,101545.57
2023-05-15T17:42:43.797Z,101550.97
2023-05-15T17:45:10.947Z,101548.36
2023-05-15T17:47:37.933Z,101542.39
2023-05-15T17:50:05.953Z,101535.22
2023-05-15T17:52:34.895Z,101533.86
2023-05-15T17:55:01.717Z,101533.00
2023-05-15T17:57:28.964Z,101531.48
2023-05-15T17:59:55.972Z,101530.70
2023-05-15T18:02:22.777Z,101529.52
2023-05-15T18:04:49.583Z,101530.46
2023-05-15T18:07:16.383Z,101529.43
2023-05-15T18:09:43.409Z,101536.66
2023-05-15T18:12:10.472Z,101539.66
2023-05-15T18:14:38.319Z,101544.24
2023-05-15T18:17:06.763Z,101544.21
2023-05-15T18:19:33.584Z,101548.70
2023-05-15T18:22:03.372Z,101549.98
2023-05-15T18:24:30.418Z,101550.48
2023-05-15T18:26:57.418Z,101545.28
2023-05-15T18:29:24.272Z,101545.16
2023-05-15T18:31:51.363Z,101546.59
2023-05-15T18:34:18.710Z,101539.52
2023-05-15T18:36:45.568Z,101535.65
2023-05-15T18:39:12.660Z,101542.08
2023-05-15T18:41:39.523Z,101548.91
2023-05-15T18:44:06.375Z,101550.50
2023-05-15T18:46:34.229Z,101551.94
2023-05-15T18:49:01.477Z,101549.52
2023-05-15T18:51:28.374Z,101549.65
2023-05-15T18:53:55.255Z,101545.36
2023-05-15T18:56:22.727Z,101543.05
2023-05-15T18:58:49.510Z,101546.98
2023-05-15T19:01:17.240Z,101550.92
2023-05-15T19:03:44.175Z,101553.11
2023-05-15T19:06:12.250Z,101550.73
2023-05-15T19:08:39.125Z,101547.91
2023-05-15T19:11:06.050Z,101547.96
2023-05-15T19:13:33.367Z,101546.86
2023-05-15T19:16:00.357Z,101549.49
2023-05-15T19:18:27.270Z,101550.45
2023-05-15T19:20:54.449Z,101550.56
2023-05-15T19:23:21.367Z,101552.09
2023-05-15T19:25:48.332Z,101550.42
2023-05-15T19:28:15.254Z,101555.05
2023-05-15T19:30:42.078Z,101556.52
2023-05-15T19:33:08.938Z,101550.11
2023-05-15T19:35:37.514Z,101551.68
2023-05-15T19:38:04.736Z,101552.80
2023-05-15T19:40:31.486Z,101554.23
2023-05-15T19:42:58.229Z,101555.83
2023-05-15T19:45:25.043Z,101556.17
2023-05-15T19:47:51.946Z,101555.13
2023-05-15T19:50:18.780Z,101552.33
2023-05-15T19:52:45.791Z,101548.43
2023-05-15T19:55:12.629Z,101545.85
2023-05-15T19:57:42.888Z,101548.41
2023-05-15T20:00:10.690Z,101549.29
2023-05-15T20:02:37.630Z,101549.98
2023-05-15T20:05:05.247Z,101553.89
2023-05-15T20:07:32.166Z,101554.90
2023-05-15T20:09:59.096Z,101555.23
2023-05-15T20:12:25.915Z,101548.08
2023-05-15T20:14:52.703Z,101543.30
2023-05-15T20:17:19.552Z,101540.83
2023-05-15T20:19:48.261Z,101540.27
2023-05-15T20:22:15.233Z,101540.64
2023-05-15T20:24:42.255Z,101538.57
2023-05-15T20:27:09.083Z,101532.61
2023-05-15T20:29:36.149Z,101533.86
2023-05-15T20:32:03.464Z,101534.27
2023-05-15T20:34:30.673Z,101538.29
2023-05-15T20:36:57.526Z,101538.56
2023-05-15T20:39:24.386Z,101530.36
2023-05-15T20:41:51.319Z,101519.61
2023-05-15T20:44:18.162Z,101520.60
2023-05-15T20:46:45.079Z,101520.90
2023-05-15T20:49:12.038Z,101518.61
2023-05-15T20:51:38.840Z,101519.11
2023-05-15T20:54:05.756Z,101518.66
2023-05-15T20:56:32.546Z,101516.66
2023-05-15T20:59:00.084Z,101512.24
2023-05-15T21:01:29.908Z,101511.30
2023-05-15T21:03:56.862Z,101510.08
2023-05-15T21:06:23.789Z,101510.55
2023-05-15T21:08:51.301Z,101507.19
2023-05-15T21:11:18.106Z,101513.42
2023-05-15T21:13:44.899Z,101515.29
2023-05-15T21:16:11.753Z,101521.56
2023-05-15T21:18:39.262Z,101523.30
2023-05-15T21:21:09.185Z,101523.98
2023-05-15T21:23:36.810Z,101522.14
2023-05-15T21:26:03.885Z,101524.62
2023-05-15T21:28:30.918Z,101518.52
2023-05-15T21:30:57.865Z,101516.47
2023-05-15T21:33:24.838Z,101518.27
2023-05-15T21:35:51.762Z,101519.34
2023-05-15T21:38:18.749Z,101521.77
2023-05-15T21:40:45.563Z,101517.24
2023-05-15T21:43:12.471Z,101514.12
2023-05-15T21:45:39.282Z,101512.16
2023-05-15T21:48:06.230Z,101509.20
2023-05-15T21:50:33.099Z,101508.98
2023-05-15T21:53:00.029Z,101508.46
2023-05-15T21:55:26.827Z,101513.66
2023-05-15T21:57:53.650Z,101517.69
2023-05-15T22:00:20.998Z,101510.39
2023-05-15T22:02:47.880Z,101515.16
2023-05-15T22:05:14.940Z,101511.02
2023-05-15T22:07:41.762Z,101505.92
2023-05-15T22:10:08.807Z,101506.08
2023-05-15T22:12:35.866Z,101511.83
2023-05-15T22:15:02.699Z,101515.95
2023-05-15T22:17:30.763Z,101512.17
2023-05-15T22:20:08.192Z,101514.26
2023-05-15T22:22:35.492Z,101509.69
2023-05-15T22:25:02.335Z,101508.11
2023-05-15T22:27:29.618Z,101509.39
2023-05-15T22:29:56.568Z,101508.75
2023-05-15T22:32:23.543Z,101510.26
2023-05-15T22:34:50.407Z,101509.59
2023-05-15T22:37:17.180Z,101506.64
2023-05-15T22:39:44.289Z,101505.52
2023-05-15T22:42:11.121Z,101502.27
2023-05-15T22:44:38.026Z,101496.36
2023-05-15T22:47:05.110Z,101499.31
2023-05-15T22:49:31.909Z,101496.78
2023-05-15T22:51:58.833Z,101490.48
2023-05-15T22:54:25.717Z,101493.80
2023-05-15T22:56:52.552Z,101497.35
2023-05-15T22:59:19.498Z,101494.27
2023-05-15T23:01:46.576Z,101493.50
2023-05-15T23:04:13.558Z,101491.98
2023-05-15T23:06:41.137Z,101490.80
2023-05-15T23:09:08.672Z,101490.60
2023-05-15T23:11:35.620Z,101491.62
2023-05-15T23:14:03.131Z,101496.20
2023-05-15T23:16:30.029Z,101497.48
2023-05-15T23:18:57.093Z,101500.14
2023-05-15T23:21:23.880Z,101496.87
2023-05-15T23:23:51.000Z,101493.08
2023-05-15T23:26:17.810Z,101491.88
2023-05-15T23:28:44.846Z,101488.41
2023-05-15T23:31:14.824Z,101491.41
2023-05-15T23:33:41.779Z,101492.81
2023-05-15T23:36:08.974Z,101491.68
2023-05-15T23:38:35.909Z,101485.64
2023-05-15T23:41:02.732Z,101490.13
2023-05-15T23:43:29.779Z,101485.51
2023-05-15T23:45:56.614Z,101487.27
2023-05-15T23:48:23.491Z,101485.37
2023-05-15T23:50:51.656Z,101484.70
2023-05-15T23:53:18.517Z,101480.65
2023-05-15T23:55:45.669Z,101479.46
2023-05-15T23:58:12.474Z,101480.98
